sensor_id;sensor_type;location;lat;lon;timestamp;pressure;altitude;pressure_sealevel;temperature;humidity
10014;BME280;45684;48.358;10.746;2023-03-03T00:00:53;96297.78;;;0.91;100.00
10014;BME280;45684;48.358;10.746;2023-03-03T00:03:22;96291.63;;;0.85;100.00
10014;BME280;45684;48.358;10.746;2023-03-03T00:05:51;96289.44;;;0.82;100.00
10014;BME280;45684;48.358;10.746;2023-03-03T00:08:20;96300.16;;;0.87;100.00
10014;BME280;45684;48.358;10.746;2023-03-03T00:10:48;96299.69;;;0.95;100.00
10014;BME280;45684;48.358;10.746;2023-03-03T00:13:20;96295.44;;;0.94;100.00
10014;BME280;45684;48.358;10.746;2023-03-03T00:15:49;96291.63;;;0.85;100.00
10014;BME280;45684;48.358;10.746;2023-03-03T00:18:23;96292.09;;;0.82;100.00
10014;BME280;45684;48.358;10.746;2023-03-03T00:20:55;96291.25;;;0.76;100.00
10014;BME280;45684;48.358;10.746;2023-03-03T00:23:28;96288.28;;;0.73;100.00
10014;BME280;45684;48.358;10.746;2023-03-03T00:25:58;96290.47;;;0.76;100.00
10014;BME280;45684;48.358;10.746;2023-03-03T00:28:30;96286.44;;;0.73;100.00
10014;BME280;45684;48.358;10.746;2023-03-03T00:31:00;96291.16;;;0.66;100.00
10014;BME280;45684;48.358;10.746;2023-03-03T00:33:30;96291.16;;;0.66;100.00
10014;BME280;45684;48.358;10.746;2023-03-03T00:36:19;96286.06;;;0.65;100.00
10014;BME280;45684;48.358;10.746;2023-03-03T00:38:48;96287.06;;;0.59;100.00
10014;BME280;45684;48.358;10.746;2023-03-03T00:41:19;96290.78;;;0.58;100.00
10014;BME280;45684;48.358;10.746;2023-03-03T00:43:50;96288.09;;;0.53;100.00
10014;BME280;45684;48.358;10.746;2023-03-03T00:46:19;96288.25;;;0.46;100.00
10014;BME280;45684;48.358;10.746;2023-03-03T00:48:48;96293.28;;;0.42;100.00
10014;BME280;45684;48.358;10.746;2023-03-03T00:51:26;96298.03;;;0.40;100.00
10014;BME280;45684;48.358;10.746;2023-03-03T00:53:55;96303.63;;;0.39;100.00
10014;BME280;45684;48.358;10.746;2023-03-03T00:56:23;96296.94;;;0.36;100.00
10014;BME280;45684;48.358;10.746;2023-03-03T00:58:52;96295.00;;;0.32;100.00
10014;BME280;45684;48.358;10.746;2023-03-03T01:01:23;96292.97;;;0.39;100.00
10014;BME280;45684;48.358;10.746;2023-03-03T01:03:52;96296.06;;;0.31;100.00
10014;BME280;45684;48.358;10.746;2023-03-03T01:06:20;96300.84;;;0.29;100.00
10014;BME280;45684;48.358;10.746;2023-03-03T01:08:48;96299.94;;;0.23;100.00
10014;BME280;45684;48.358;10.746;2023-03-03T01:11:18;96302.88;;;0.21;100.00
10014;BME280;45684;48.358;10.746;2023-03-03T01:13:48;96297.81;;;0.20;100.00
10014;BME280;45684;48.358;10.746;2023-03-03T01:16:19;96293.09;;;0.27;100.00
10014;BME280;45684;48.358;10.746;2023-03-03T01:18:48;96279.00;;;0.27;100.00
10014;BME280;45684;48.358;10.746;2023-03-03T01:21:16;96285.13;;;0.27;100.00
10014;BME280;45684;48.358;10.746;2023-03-03T01:23:44;96284.56;;;0.25;100.00
10014;BME280;45684;48.358;10.746;2023-03-03T01:26:11;96290.69;;;0.25;100.00
10014;BME280;45684;48.358;10.746;2023-03-03T01:28:39;96282.41;;;0.22;100.00
10014;BME280;45684;48.358;10.746;2023-03-03T01:31:07;96282.06;;;0.18;100.00
10014;BME280;45684;48.358;10.746;2023-03-03T01:33:36;96280.47;;;0.17;100.00
10014;BME280;45684;48.358;10.746;2023-03-03T01:36:05;96280.47;;;0.17;100.00
10014;BME280;45684;48.358;10.746;2023-03-03T01:38:34;96287.97;;;0.20;100.00
10014;BME280;45684;48.358;10.746;2023-03-03T01:41:02;96287.22;;;0.25;100.00
10014;BME280;45684;48.358;10.746;2023-03-03T01:43:32;96271.34;;;0.30;100.00
10014;BME280;45684;48.358;10.746;2023-03-03T01:46:25;96282.09;;;0.40;100.00
10014;BME280;45684;48.358;10.746;2023-03-03T01:48:58;96281.34;;;0.45;100.00
10014;BME280;45684;48.358;10.746;2023-03-03T01:51:31;96278.72;;;0.50;100.00
10014;BME280;45684;48.358;10.746;2023-03-03T01:54:02;96287.56;;;0.56;100.00
10014;BME280;45684;48.358;10.746;2023-03-03T01:56:30;96284.38;;;0.54;100.00
10014;BME280;45684;48.358;10.746;2023-03-03T01:58:59;96278.03;;;0.60;100.00
10014;BME280;45684;48.358;10.746;2023-03-03T02:01:30;96282.88;;;0.63;100.00
10014;BME280;45684;48.358;10.746;2023-03-03T02:03:59;96291.16;;;0.66;100.00
10014;BME280;45684;48.358;10.746;2023-03-03T02:06:30;96282.66;;;0.69;100.00
10014;BME280;45684;48.358;10.746;2023-03-03T02:09:04;96281.09;;;0.73;100.00
10014;BME280;45684;48.358;10.746;2023-03-03T02:11:36;96275.78;;;0.73;100.00
10014;BME280;45684;48.358;10.746;2023-03-03T02:14:05;96284.28;;;0.70;100.00
10014;BME280;45684;48.358;10.746;2023-03-03T02:16:32;96272.75;;;0.65;100.00
10014;BME280;45684;48.358;10.746;2023-03-03T02:19:03;96266.84;;;0.58;100.00
10014;BME280;45684;48.358;10.746;2023-03-03T02:21:32;96268.78;;;0.40;100.00
10014;BME280;45684;48.358;10.746;2023-03-03T02:24:02;96264.84;;;0.43;100.00
10014;BME280;45684;48.358;10.746;2023-03-03T02:26:36;96262.41;;;0.41;100.00
10014;BME280;45684;48.358;10.746;2023-03-03T02:29:09;96268.53;;;0.42;100.00
10014;BME280;45684;48.358;10.746;2023-03-03T02:31:39;96261.38;;;0.42;100.00
10014;BME280;45684;48.358;10.746;2023-03-03T02:34:07;96262.28;;;0.31;100.00
10014;BME280;45684;48.358;10.746;2023-03-03T02:36:36;96257.91;;;0.20;100.00
10014;BME280;45684;48.358;10.746;2023-03-03T02:39:07;96259.03;;;0.24;100.00
10014;BME280;45684;48.358;10.746;2023-03-03T02:41:38;96255.31;;;0.25;100.00
10014;BME280;45684;48.358;10.746;2023-03-03T02:44:10;96245.44;;;0.20;100.00
10014;BME280;45684;48.358;10.746;2023-03-03T02:46:40;96250.16;;;0.18;100.00
10014;BME280;45684;48.358;10.746;2023-03-03T02:49:09;96256.81;;;0.16;100.00
10014;BME280;45684;48.358;10.746;2023-03-03T02:51:38;96257.81;;;0.10;100.00
10014;BME280;45684;48.358;10.746;2023-03-03T02:54:07;96261.50;;;0.09;100.00
10014;BME280;45684;48.358;10.746;2023-03-03T02:56:37;96268.44;;;0.10;100.00
10014;BME280;45684;48.358;10.746;2023-03-03T02:59:05;96272.38;;;0.07;100.00
10014;BME280;45684;48.358;10.746;2023-03-03T03:01:39;96258.28;;;0.07;100.00
10014;BME280;45684;48.358;10.746;2023-03-03T03:04:13;96249.81;;;0.10;100.00
10014;BME280;45684;48.358;10.746;2023-03-03T03:06:43;96249.88;;;0.15;100.00
10014;BME280;45684;48.358;10.746;2023-03-03T03:09:14;96260.53;;;0.15;100.00
10014;BME280;45684;48.358;10.746;2023-03-03T03:11:44;96248.25;;;0.14;100.00
10014;BME280;45684;48.358;10.746;2023-03-03T03:14:13;96250.50;;;0.22;100.00
10014;BME280;45684;48.358;10.746;2023-03-03T03:16:42;96249.75;;;0.27;100.00
10014;BME280;45684;48.358;10.746;2023-03-03T03:19:10;96257.50;;;0.28;100.00
10014;BME280;45684;48.358;10.746;2023-03-03T03:21:39;96268.19;;;0.33;100.00
10014;BME280;45684;48.358;10.746;2023-03-03T03:24:08;96253.31;;;0.37;100.00
10014;BME280;45684;48.358;10.746;2023-03-03T03:26:40;96259.47;;;0.38;100.00
10014;BME280;45684;48.358;10.746;2023-03-03T03:29:10;96254.94;;;0.38;100.00
10014;BME280;45684;48.358;10.746;2023-03-03T03:31:38;96260.09;;;0.50;100.00
10014;BME280;45684;48.358;10.746;2023-03-03T03:34:06;96265.13;;;0.46;100.00
10014;BME280;45684;48.358;10.746;2023-03-03T03:36:33;96266.19;;;0.45;100.00
10014;BME280;45684;48.358;10.746;2023-03-03T03:39:03;96265.88;;;0.42;100.00
10014;BME280;45684;48.358;10.746;2023-03-03T03:41:33;96273.97;;;0.52;100.00
10014;BME280;45684;48.358;10.746;2023-03-03T03:44:01;96267.09;;;0.56;100.00
10014;BME280;45684;48.358;10.746;2023-03-03T03:46:30;96273.50;;;0.60;100.00
10014;BME280;45684;48.358;10.746;2023-03-03T03:48:58;96273.88;;;0.69;100.00
10014;BME280;45684;48.358;10.746;2023-03-03T03:51:26;96276.09;;;0.77;100.00
10014;BME280;45684;48.358;10.746;2023-03-03T03:53:54;96273.47;;;0.82;100.00
10014;BME280;45684;48.358;10.746;2023-03-03T03:56:22;96276.19;;;0.87;100.00
10014;BME280;45684;48.358;10.746;2023-03-03T03:58:53;96277.88;;;0.93;100.00
10014;BME280;45684;48.358;10.746;2023-03-03T04:01:21;96272.81;;;0.97;100.00
10014;BME280;45684;48.358;10.746;2023-03-03T04:03:51;96275.53;;;1.02;100.00
10014;BME280;45684;48.358;10.746;2023-03-03T04:06:22;96277.44;;;1.07;100.00
10014;BME280;45684;48.358;10.746;2023-03-03T04:08:51;96278.53;;;1.11;100.00
10014;BME280;45684;48.358;10.746;2023-03-03T04:11:21;96275.38;;;1.14;100.00
10014;BME280;45684;48.358;10.746;2023-03-03T04:13:49;96279.91;;;1.13;100.00
10014;BME280;45684;48.358;10.746;2023-03-03T04:16:16;96280.44;;;1.15;100.00
10014;BME280;45684;48.358;10.746;2023-03-03T04:18:45;96278.63;;;1.21;100.00
10014;BME280;45684;48.358;10.746;2023-03-03T04:21:16;96276.53;;;1.23;100.00
10014;BME280;45684;48.358;10.746;2023-03-03T04:23:45;96281.84;;;1.23;100.00
10014;BME280;45684;48.358;10.746;2023-03-03T04:26:13;96281.84;;;1.23;100.00
10014;BME280;45684;48.358;10.746;2023-03-03T04:28:42;96274.91;;;1.22;100.00
10014;BME280;45684;48.358;10.746;2023-03-03T04:31:10;96281.03;;;1.22;100.00
10014;BME280;45684;48.358;10.746;2023-03-03T04:33:39;96272.50;;;1.20;100.00
10014;BME280;45684;48.358;10.746;2023-03-03T04:36:07;96277.28;;;1.18;100.00
10014;BME280;45684;48.358;10.746;2023-03-03T04:38:37;96271.66;;;1.15;100.00
10014;BME280;45684;48.358;10.746;2023-03-03T04:41:05;96274.88;;;1.17;100.00
10014;BME280;45684;48.358;10.746;2023-03-03T04:43:36;96274.88;;;1.17;100.00
10014;BME280;45684;48.358;10.746;2023-03-03T04:46:04;96267.69;;;1.17;100.00
10014;BME280;45684;48.358;10.746;2023-03-03T04:48:32;96268.78;;;1.21;100.00
10014;BME280;45684;48.358;10.746;2023-03-03T04:51:00;96271.19;;;1.23;100.00
10014;BME280;45684;48.358;10.746;2023-03-03T04:53:29;96269.63;;;1.27;100.00
10014;BME280;45684;48.358;10.746;2023-03-03T04:55:59;96266.44;;;1.30;100.00
10014;BME280;45684;48.358;10.746;2023-03-03T04:58:27;96264.03;;;1.28;100.00
10014;BME280;45684;48.358;10.746;2023-03-03T05:00:56;96265.38;;;1.26;100.00
10014;BME280;45684;48.358;10.746;2023-03-03T05:03:26;96264.53;;;1.25;100.00
10014;BME280;45684;48.358;10.746;2023-03-03T05:05:54;96269.09;;;1.30;100.00
10014;BME280;45684;48.358;10.746;2023-03-03T05:08:22;96264.88;;;1.34;100.00
10014;BME280;45684;48.358;10.746;2023-03-03T05:10:51;96269.44;;;1.39;100.00
10014;BME280;45684;48.358;10.746;2023-03-03T05:13:21;96272.09;;;1.39;100.00
10014;BME280;45684;48.358;10.746;2023-03-03T05:15:49;96277.44;;;1.39;100.00
10014;BME280;45684;48.358;10.746;2023-03-03T05:18:18;96280.09;;;1.39;100.00
10014;BME280;45684;48.358;10.746;2023-03-03T05:20:46;96285.72;;;1.42;100.00
10014;BME280;45684;48.358;10.746;2023-03-03T05:23:14;96279.88;;;1.40;100.00
10014;BME280;45684;48.358;10.746;2023-03-03T05:25:42;96279.34;;;1.43;100.00
10014;BME280;45684;48.358;10.746;2023-03-03T05:28:10;96282.28;;;1.47;100.00
10014;BME280;45684;48.358;10.746;2023-03-03T05:30:39;96282.91;;;1.54;100.00
10014;BME280;45684;48.358;10.746;2023-03-03T05:33:07;96283.94;;;1.53;100.00
10014;BME280;45684;48.358;10.746;2023-03-03T05:35:38;96287.94;;;1.50;100.00
10014;BME280;45684;48.358;10.746;2023-03-03T05:38:05;96291.38;;;1.51;100.00
10014;BME280;45684;48.358;10.746;2023-03-03T05:40:33;96288.47;;;1.52;100.00
10014;BME280;45684;48.358;10.746;2023-03-03T05:43:01;96297.00;;;1.55;100.00
10014;BME280;45684;48.358;10.746;2023-03-03T05:45:29;96292.22;;;1.57;100.00
10014;BME280;45684;48.358;10.746;2023-03-03T05:47:58;96304.25;;;1.59;100.00
10014;BME280;45684;48.358;10.746;2023-03-03T05:50:26;96302.91;;;1.62;100.00
10014;BME280;45684;48.358;10.746;2023-03-03T05:52:53;96305.59;;;1.62;100.00
10014;BME280;45684;48.358;10.746;2023-03-03T05:55:21;96306.91;;;1.59;100.00
10014;BME280;45684;48.358;10.746;2023-03-03T05:57:49;96306.66;;;1.61;100.00
10014;BME280;45684;48.358;10.746;2023-03-03T06:00:17;96317.03;;;1.62;100.00
10014;BME280;45684;48.358;10.746;2023-03-03T06:02:45;96311.47;;;1.64;100.00
10014;BME280;45684;48.358;10.746;2023-03-03T06:05:15;96321.88;;;1.65;100.00
10014;BME280;45684;48.358;10.746;2023-03-03T06:07:42;96314.38;;;1.62;100.00
10014;BME280;45684;48.358;10.746;2023-03-03T06:10:10;96326.91;;;1.62;100.00
10014;BME280;45684;48.358;10.746;2023-03-03T06:12:40;96327.19;;;1.65;100.00
10014;BME280;45684;48.358;10.746;2023-03-03T06:15:09;96334.41;;;1.65;100.00
10014;BME280;45684;48.358;10.746;2023-03-03T06:17:37;96322.97;;;1.69;100.00
10014;BME280;45684;48.358;10.746;2023-03-03T06:20:06;96334.97;;;1.72;100.00
10014;BME280;45684;48.358;10.746;2023-03-03T06:22:35;96326.44;;;1.70;100.00
10014;BME280;45684;48.358;10.746;2023-03-03T06:25:03;96333.09;;;1.72;100.00
10014;BME280;45684;48.358;10.746;2023-03-03T06:27:31;96325.41;;;1.76;100.00
10014;BME280;45684;48.358;10.746;2023-03-03T06:29:59;96334.47;;;1.75;100.00
10014;BME280;45684;48.358;10.746;2023-03-03T06:32:27;96334.47;;;1.75;100.00
10014;BME280;45684;48.358;10.746;2023-03-03T06:34:55;96341.69;;;1.79;100.00
10014;BME280;45684;48.358;10.746;2023-03-03T06:37:22;96345.47;;;1.84;100.00
10014;BME280;45684;48.358;10.746;2023-03-03T06:39:52;96344.97;;;1.87;100.00
10014;BME280;45684;48.358;10.746;2023-03-03T06:42:19;96346.56;;;1.88;100.00
10014;BME280;45684;48.358;10.746;2023-03-03T06:44:47;96341.22;;;1.88;100.00
10014;BME280;45684;48.358;10.746;2023-03-03T06:47:15;96356.44;;;1.87;100.00
10014;BME280;45684;48.358;10.746;2023-03-03T06:49:43;96361.22;;;1.90;100.00
10014;BME280;45684;48.358;10.746;2023-03-03T06:52:12;96351.16;;;1.97;100.00
10014;BME280;45684;48.358;10.746;2023-03-03T06:54:40;96365.31;;;2.03;100.00
10014;BME280;45684;48.358;10.746;2023-03-03T06:57:16;96361.09;;;2.07;100.00
10014;BME280;45684;48.358;10.746;2023-03-03T06:59:46;96367.69;;;1.99;100.00
10014;BME280;45684;48.358;10.746;2023-03-03T07:02:16;96371.69;;;1.97;100.00
10014;BME280;45684;48.358;10.746;2023-03-03T07:04:44;96371.47;;;2.03;100.00
10014;BME280;45684;48.358;10.746;2023-03-03T07:07:16;96369.34;;;2.06;100.00
10014;BME280;45684;48.358;10.746;2023-03-03T07:09:47;96375.25;;;2.13;100.00
10014;BME280;45684;48.358;10.746;2023-03-03T07:12:18;96386.53;;;2.20;100.00
10014;BME280;45684;48.358;10.746;2023-03-03T07:14:49;96379.03;;;2.22;100.00
10014;BME280;45684;48.358;10.746;2023-03-03T07:17:23;96380.41;;;2.24;100.00
10014;BME280;45684;48.358;10.746;2023-03-03T07:19:51;96387.06;;;2.27;100.00
10014;BME280;45684;48.358;10.746;2023-03-03T07:22:23;96393.78;;;2.29;100.00
10014;BME280;45684;48.358;10.746;2023-03-03T07:24:53;96384.69;;;2.30;100.00
10014;BME280;45684;48.358;10.746;2023-03-03T07:27:26;96381.78;;;2.32;100.00
10014;BME280;45684;48.358;10.746;2023-03-03T07:30:01;96383.94;;;2.35;100.00
10014;BME280;45684;48.358;10.746;2023-03-03T07:32:42;96385.31;;;2.43;100.00
10014;BME280;45684;48.358;10.746;2023-03-03T07:35:25;96394.63;;;2.40;100.00
10014;BME280;45684;48.358;10.746;2023-03-03T07:37:55;96386.13;;;2.43;100.00
10014;BME280;45684;48.358;10.746;2023-03-03T07:40:33;96386.69;;;2.50;100.00
10014;BME280;45684;48.358;10.746;2023-03-03T07:43:16;96381.88;;;2.47;100.00
10014;BME280;45684;48.358;10.746;2023-03-03T07:45:55;96390.44;;;2.54;100.00
10014;BME280;45684;48.358;10.746;2023-03-03T07:48:32;96385.66;;;2.57;100.00
10014;BME280;45684;48.358;10.746;2023-03-03T07:51:10;96389.69;;;2.69;100.00
10014;BME280;45684;48.358;10.746;2023-03-03T07:53:38;96394.75;;;2.66;100.00
10014;BME280;45684;48.358;10.746;2023-03-03T07:56:14;96395.34;;;2.73;100.00
10014;BME280;45684;48.358;10.746;2023-03-03T07:58:44;96384.38;;;2.74;100.00
10014;BME280;45684;48.358;10.746;2023-03-03T08:01:28;96387.00;;;2.64;100.00
10014;BME280;45684;48.358;10.746;2023-03-03T08:03:59;96384.81;;;2.56;100.00
10014;BME280;45684;48.358;10.746;2023-03-03T08:06:39;96394.19;;;2.59;100.00
10014;BME280;45684;48.358;10.746;2023-03-03T08:09:37;96396.88;;;2.64;100.00
10014;BME280;45684;48.358;10.746;2023-03-03T08:12:19;96404.44;;;2.77;100.00
10014;BME280;45684;48.358;10.746;2023-03-03T08:14:51;96398.53;;;2.75;100.00
10014;BME280;45684;48.358;10.746;2023-03-03T08:17:22;96404.97;;;2.79;100.00
10014;BME280;45684;48.358;10.746;2023-03-03T08:19:52;96397.50;;;2.81;100.00
10014;BME280;45684;48.358;10.746;2023-03-03T08:22:28;96396.47;;;2.92;100.00
10014;BME280;45684;48.358;10.746;2023-03-03T08:24:57;96399.75;;;3.10;100.00
10014;BME280;45684;48.358;10.746;2023-03-03T08:27:25;96406.34;;;2.92;100.00
10014;BME280;45684;48.358;10.746;2023-03-03T08:29:54;96399.44;;;2.96;100.00
10014;BME280;45684;48.358;10.746;2023-03-03T08:32:22;96397.34;;;3.08;100.00
10014;BME280;45684;48.358;10.746;2023-03-03T08:34:50;96398.41;;;3.12;100.00
10014;BME280;45684;48.358;10.746;2023-03-03T08:37:18;96400.22;;;2.96;100.00
10014;BME280;45684;48.358;10.746;2023-03-03T08:39:45;96407.50;;;3.16;100.00
10014;BME280;45684;48.358;10.746;2023-03-03T08:42:13;96409.97;;;3.33;100.00
10014;BME280;45684;48.358;10.746;2023-03-03T08:44:41;96408.38;;;3.42;100.00
10014;BME280;45684;48.358;10.746;2023-03-03T08:47:10;96406.81;;;3.56;100.00
10014;BME280;45684;48.358;10.746;2023-03-03T08:49:40;96411.38;;;3.76;100.00
10014;BME280;45684;48.358;10.746;2023-03-03T08:52:09;96415.13;;;3.70;100.00
10014;BME280;45684;48.358;10.746;2023-03-03T08:57:27;96414.31;;;3.95;100.00
10014;BME280;45684;48.358;10.746;2023-03-03T08:59:55;96411.63;;;4.31;100.00
10014;BME280;45684;48.358;10.746;2023-03-03T09:02:24;96418.06;;;4.35;100.00
10014;BME280;45684;48.358;10.746;2023-03-03T09:04:52;96418.84;;;4.35;100.00
10014;BME280;45684;48.358;10.746;2023-03-03T09:07:19;96426.88;;;4.46;100.00
10014;BME280;45684;48.358;10.746;2023-03-03T09:09:47;96426.81;;;4.61;100.00
10014;BME280;45684;48.358;10.746;2023-03-03T09:12:16;96433.44;;;4.89;100.00
10014;BME280;45684;48.358;10.746;2023-03-03T09:14:46;96441.41;;;5.15;100.00
10014;BME280;45684;48.358;10.746;2023-03-03T09:17:24;96438.09;;;5.33;100.00
10014;BME280;45684;48.358;10.746;2023-03-03T09:19:55;96449.91;;;5.37;100.00
10014;BME280;45684;48.358;10.746;2023-03-03T09:22:25;96443.09;;;5.55;100.00
10014;BME280;45684;48.358;10.746;2023-03-03T09:24:54;96449.41;;;5.74;100.00
10014;BME280;45684;48.358;10.746;2023-03-03T09:27:27;96450.78;;;6.16;100.00
10014;BME280;45684;48.358;10.746;2023-03-03T09:30:00;96454.97;;;6.56;100.00
10014;BME280;45684;48.358;10.746;2023-03-03T09:32:36;96459.88;;;7.02;100.00
10014;BME280;45684;48.358;10.746;2023-03-03T09:35:32;96464.59;;;7.15;100.00
10014;BME280;45684;48.358;10.746;2023-03-03T09:38:16;96465.50;;;7.30;100.00
10014;BME280;45684;48.358;10.746;2023-03-03T09:43:55;96468.75;;;7.70;100.00
10014;BME280;45684;48.358;10.746;2023-03-03T09:46:34;96454.44;;;7.31;100.00
10014;BME280;45684;48.358;10.746;2023-03-03T09:49:18;96463.75;;;7.39;100.00
10014;BME280;45684;48.358;10.746;2023-03-03T09:52:10;96458.19;;;7.54;100.00
10014;BME280;45684;48.358;10.746;2023-03-03T09:54:54;96462.50;;;7.31;100.00
10014;BME280;45684;48.358;10.746;2023-03-03T09:57:31;96462.75;;;7.54;100.00
10014;BME280;45684;48.358;10.746;2023-03-03T10:00:19;96474.84;;;7.56;100.00
10014;BME280;45684;48.358;10.746;2023-03-03T10:05:57;96460.56;;;7.37;100.00
10014;BME280;45684;48.358;10.746;2023-03-03T10:08:38;96461.97;;;7.72;100.00
10014;BME280;45684;48.358;10.746;2023-03-03T10:11:14;96464.91;;;7.76;100.00
10014;BME280;45684;48.358;10.746;2023-03-03T10:13:55;96464.53;;;8.01;100.00
10014;BME280;45684;48.358;10.746;2023-03-03T10:16:37;96472.97;;;8.13;100.00
10014;BME280;45684;48.358;10.746;2023-03-03T10:19:17;96470.66;;;7.45;100.00
10014;BME280;45684;48.358;10.746;2023-03-03T10:21:58;96465.97;;;7.56;100.00
10014;BME280;45684;48.358;10.746;2023-03-03T10:24:39;96467.50;;;7.62;100.00
10014;BME280;45684;48.358;10.746;2023-03-03T10:27:23;96465.75;;;7.52;100.00
10014;BME280;45684;48.358;10.746;2023-03-03T10:29:59;96475.13;;;7.74;100.00
10014;BME280;45684;48.358;10.746;2023-03-03T10:32:45;96474.00;;;7.80;100.00
10014;BME280;45684;48.358;10.746;2023-03-03T10:35:38;96472.69;;;7.96;100.00
10014;BME280;45684;48.358;10.746;2023-03-03T10:38:35;96478.78;;;8.21;100.00
10014;BME280;45684;48.358;10.746;2023-03-03T10:41:17;96474.72;;;8.04;100.00
10014;BME280;45684;48.358;10.746;2023-03-03T10:44:02;96476.47;;;8.14;100.00
10014;BME280;45684;48.358;10.746;2023-03-03T10:46:56;96473.53;;;8.29;100.00
10014;BME280;45684;48.358;10.746;2023-03-03T10:49:38;96484.22;;;8.34;100.00
10014;BME280;45684;48.358;10.746;2023-03-03T10:52:21;96479.94;;;8.14;100.00
10014;BME280;45684;48.358;10.746;2023-03-03T10:55:03;96486.94;;;7.97;100.00
10014;BME280;45684;48.358;10.746;2023-03-03T10:57:40;96477.03;;;8.11;100.00
10014;BME280;45684;48.358;10.746;2023-03-03T11:00:22;96478.19;;;8.24;99.35
10014;BME280;45684;48.358;10.746;2023-03-03T11:03:12;96478.44;;;8.08;100.00
10014;BME280;45684;48.358;10.746;2023-03-03T11:05:49;96481.50;;;8.39;100.00
10014;BME280;45684;48.358;10.746;2023-03-03T11:08:21;96485.31;;;8.52;98.58
10014;BME280;45684;48.358;10.746;2023-03-03T11:11:01;96484.06;;;8.63;97.25
10014;BME280;45684;48.358;10.746;2023-03-03T11:13:39;96486.84;;;8.58;97.21
10014;BME280;45684;48.358;10.746;2023-03-03T11:16:21;96475.47;;;8.61;99.41
10014;BME280;45684;48.358;10.746;2023-03-03T11:19:05;96473.75;;;8.52;97.13
10014;BME280;45684;48.358;10.746;2023-03-03T11:21:40;96473.19;;;8.68;96.52
10014;BME280;45684;48.358;10.746;2023-03-03T11:24:21;96474.63;;;8.28;97.82
10014;BME280;45684;48.358;10.746;2023-03-03T11:27:26;96472.59;;;8.72;98.37
10014;BME280;45684;48.358;10.746;2023-03-03T11:30:16;96462.63;;;8.86;94.32
10014;BME280;45684;48.358;10.746;2023-03-03T11:32:48;96461.47;;;9.06;92.79
10014;BME280;45684;48.358;10.746;2023-03-03T11:35:22;96466.22;;;8.95;94.50
10014;BME280;45684;48.358;10.746;2023-03-03T11:38:01;96461.22;;;8.75;95.81
10014;BME280;45684;48.358;10.746;2023-03-03T11:40:40;96465.34;;;9.13;93.21
10014;BME280;45684;48.358;10.746;2023-03-03T11:43:16;96455.44;;;9.09;91.41
10014;BME280;45684;48.358;10.746;2023-03-03T11:46:04;96458.66;;;9.38;89.07
10014;BME280;45684;48.358;10.746;2023-03-03T11:48:38;96451.34;;;9.66;89.42
10014;BME280;45684;48.358;10.746;2023-03-03T11:51:12;96447.88;;;9.88;87.50
10014;BME280;45684;48.358;10.746;2023-03-03T11:54:02;96443.47;;;10.15;83.64
10014;BME280;45684;48.358;10.746;2023-03-03T11:56:34;96446.16;;;10.29;82.67
10014;BME280;45684;48.358;10.746;2023-03-03T11:59:30;96436.94;;;10.07;83.88
10014;BME280;45684;48.358;10.746;2023-03-03T12:02:11;96435.22;;;10.34;83.50
10014;BME280;45684;48.358;10.746;2023-03-03T12:04:49;96432.72;;;10.37;79.95
10014;BME280;45684;48.358;10.746;2023-03-03T12:07:25;96435.09;;;10.39;79.75
10014;BME280;45684;48.358;10.746;2023-03-03T12:10:06;96438.06;;;10.51;79.28
10014;BME280;45684;48.358;10.746;2023-03-03T12:12:42;96434.47;;;10.19;80.21
10014;BME280;45684;48.358;10.746;2023-03-03T12:15:18;96433.78;;;9.78;84.49
10014;BME280;45684;48.358;10.746;2023-03-03T12:18:11;96430.53;;;10.03;82.35
10014;BME280;45684;48.358;10.746;2023-03-03T12:20:48;96425.03;;;9.58;83.76
10014;BME280;45684;48.358;10.746;2023-03-03T12:23:35;96419.94;;;9.93;84.31
10014;BME280;45684;48.358;10.746;2023-03-03T12:26:11;96427.28;;;9.79;83.97
10014;BME280;45684;48.358;10.746;2023-03-03T12:28:45;96425.97;;;9.90;83.75
10014;BME280;45684;48.358;10.746;2023-03-03T12:31:26;96419.09;;;10.06;85.21
10014;BME280;45684;48.358;10.746;2023-03-03T12:33:58;96411.69;;;10.12;85.43
10014;BME280;45684;48.358;10.746;2023-03-03T12:36:48;96419.28;;;10.10;85.39
10014;BME280;45684;48.358;10.746;2023-03-03T12:39:27;96418.38;;;10.14;84.56
10014;BME280;45684;48.358;10.746;2023-03-03T12:42:09;96420.63;;;9.99;82.94
10014;BME280;45684;48.358;10.746;2023-03-03T12:44:43;96415.13;;;10.04;80.75
10014;BME280;45684;48.358;10.746;2023-03-03T12:47:21;96414.84;;;10.28;79.71
10014;BME280;45684;48.358;10.746;2023-03-03T12:50:02;96411.13;;;10.23;79.78
10014;BME280;45684;48.358;10.746;2023-03-03T12:52:45;96405.34;;;10.39;80.13
10014;BME280;45684;48.358;10.746;2023-03-03T12:55:24;96401.09;;;10.69;78.41
10014;BME280;45684;48.358;10.746;2023-03-03T12:58:03;96400.16;;;10.73;75.32
10014;BME280;45684;48.358;10.746;2023-03-03T13:00:42;96405.22;;;11.06;74.21
10014;BME280;45684;48.358;10.746;2023-03-03T13:03:34;96414.69;;;11.26;73.83
10014;BME280;45684;48.358;10.746;2023-03-03T13:06:27;96413.25;;;11.29;71.35
10014;BME280;45684;48.358;10.746;2023-03-03T13:09:03;96412.78;;;11.35;69.93
10014;BME280;45684;48.358;10.746;2023-03-03T13:11:51;96411.84;;;11.40;72.77
10014;BME280;45684;48.358;10.746;2023-03-03T13:14:30;96413.13;;;11.51;74.28
10014;BME280;45684;48.358;10.746;2023-03-03T13:17:08;96420.66;;;11.63;74.03
10014;BME280;45684;48.358;10.746;2023-03-03T13:19:43;96416.34;;;11.62;74.49
10014;BME280;45684;48.358;10.746;2023-03-03T13:22:17;96412.16;;;11.30;72.61
10014;BME280;45684;48.358;10.746;2023-03-03T13:24:56;96416.69;;;11.12;71.24
10014;BME280;45684;48.358;10.746;2023-03-03T13:27:31;96402.13;;;10.90;73.08
10014;BME280;45684;48.358;10.746;2023-03-03T13:30:00;96415.94;;;10.80;69.59